createdAt,value
2018-04-14T00:02:13.575Z,99.90
2018-04-14T00:04:41.883Z,99.90
2018-04-14T00:07:10.984Z,99.90
2018-04-14T00:09:39.185Z,99.90
2018-04-14T00:12:07.420Z,99.90
2018-04-14T00:14:35.717Z,99.90
2018-04-14T00:17:04.797Z,99.90
2018-04-14T00:19:33.041Z,99.90
2018-04-14T00:22:01.266Z,99.90
2018-04-14T00:24:29.546Z,99.90
2018-04-14T00:26:57.776Z,99.90
2018-04-14T00:29:26.830Z,99.90
2018-04-14T00:31:55.075Z,99.90
2018-04-14T00:34:23.259Z,99.90
2018-04-14T00:36:51.529Z,99.90
2018-04-14T00:39:19.743Z,99.90
2018-04-14T00:41:49.232Z,99.90
2018-04-14T00:44:17.469Z,99.90
2018-04-14T00:46:45.666Z,99.90
2018-04-14T00:49:13.954Z,99.90
2018-04-14T00:51:42.168Z,99.90
2018-04-14T00:54:10.374Z,99.90
2018-04-14T00:56:39.202Z,99.90
2018-04-14T00:59:08.008Z,99.90
2018-04-14T01:01:36.243Z,99.90
2018-04-14T01:04:05.177Z,99.90
2018-04-14T01:06:33.351Z,99.90
2018-04-14T01:09:01.537Z,99.90
2018-04-14T01:11:29.789Z,99.90
2018-04-14T01:13:57.984Z,99.90
2018-04-14T01:16:26.350Z,99.90
2018-04-14T01:18:54.676Z,99.90
2018-04-14T01:21:23.717Z,99.90
2018-04-14T01:23:52.888Z,99.90
2018-04-14T01:26:21.848Z,99.90
2018-04-14T01:28:50.917Z,99.90
2018-04-14T01:31:19.160Z,99.90
2018-04-14T01:33:47.373Z,99.90
2018-04-14T01:36:15.740Z,99.90
2018-04-14T01:38:44.718Z,99.90
2018-04-14T01:41:21.645Z,99.90
2018-04-14T01:43:49.943Z,99.90
2018-04-14T01:46:18.275Z,99.90
2018-04-14T01:48:46.509Z,99.90
2018-04-14T01:51:14.837Z,99.90
2018-04-14T01:53:43.073Z,99.90
2018-04-14T01:56:11.743Z,99.90
2018-04-14T01:58:40.201Z,99.90
2018-04-14T02:01:08.484Z,99.90
2018-04-14T02:03:36.735Z,99.90
2018-04-14T02:06:05.717Z,99.90
2018-04-14T02:08:34.917Z,99.90
2018-04-14T02:11:03.148Z,99.90
2018-04-14T02:13:31.452Z,99.90
2018-04-14T02:16:00.460Z,99.90
2018-04-14T02:18:28.723Z,99.90
2018-04-14T02:20:57.139Z,99.90
2018-04-14T02:23:25.524Z,99.90
2018-04-14T02:25:54.466Z,99.90
2018-04-14T02:28:22.764Z,99.90
2018-04-14T02:30:51.872Z,99.90
2018-04-14T02:33:20.136Z,99.90
2018-04-14T02:35:48.952Z,99.90
2018-04-14T02:38:17.226Z,99.90
2018-04-14T02:40:45.422Z,99.90
2018-04-14T02:43:13.682Z,99.90
2018-04-14T02:45:42.016Z,99.90
2018-04-14T02:48:11.057Z,99.90
2018-04-14T02:50:39.818Z,99.90
2018-04-14T02:53:09.180Z,99.90
2018-04-14T02:55:37.562Z,99.90
2018-04-14T02:58:05.782Z,99.90
2018-04-14T03:00:34.084Z,99.90
2018-04-14T03:03:02.374Z,99.90
2018-04-14T03:05:30.613Z,99.90
2018-04-14T03:07:58.799Z,99.90
2018-04-14T03:10:27.199Z,99.90
2018-04-14T03:12:55.401Z,99.90
2018-04-14T03:15:26.113Z,99.90
2018-04-14T03:17:54.389Z,99.90
2018-04-14T03:20:22.687Z,99.90
2018-04-14T03:22:51.827Z,99.90
2018-04-14T03:25:20.836Z,99.90
2018-04-14T03:27:49.969Z,99.90
2018-04-14T03:30:19.487Z,99.90
2018-04-14T03:32:47.774Z,99.90
2018-04-14T03:35:17.067Z,99.90
2018-04-14T03:37:45.249Z,99.90
2018-04-14T03:40:14.292Z,99.90
2018-04-14T03:42:43.625Z,99.90
2018-04-14T03:45:11.846Z,99.90
2018-04-14T03:47:40.898Z,99.90
2018-04-14T03:50:09.186Z,99.90
2018-04-14T03:52:37.448Z,99.90
2018-04-14T03:55:07.357Z,99.90
2018-04-14T03:57:35.640Z,99.90
2018-04-14T04:00:04.012Z,99.90
2018-04-14T04:02:32.299Z,99.90
2018-04-14T04:05:00.558Z,99.90
2018-04-14T04:07:28.758Z,99.90
2018-04-14T04:09:57.038Z,99.90
2018-04-14T04:12:25.406Z,99.90
2018-04-14T04:14:54.617Z,99.90
2018-04-14T04:17:22.896Z,99.90
2018-04-14T04:20:02.944Z,99.90
2018-04-14T04:22:43.054Z,99.90
2018-04-14T04:25:24.031Z,99.90
2018-04-14T04:27:52.352Z,99.90
2018-04-14T04:30:21.758Z,99.90
2018-04-14T04:32:49.958Z,99.90
2018-04-14T04:35:18.198Z,99.90
2018-04-14T04:37:46.583Z,99.90
2018-04-14T04:40:14.972Z,99.90
2018-04-14T04:42:43.438Z,99.90
2018-04-14T04:45:11.652Z,99.90
2018-04-14T04:47:41.725Z,99.90
2018-04-14T04:50:10.002Z,99.90
2018-04-14T04:52:38.252Z,99.90
2018-04-14T04:55:07.278Z,99.90
2018-04-14T04:57:35.791Z,99.90
2018-04-14T05:00:04.150Z,99.90
2018-04-14T05:02:32.428Z,99.90
2018-04-14T05:05:01.473Z,99.90
2018-04-14T05:07:29.688Z,99.90
2018-04-14T05:09:57.936Z,99.90
2018-04-14T05:12:26.194Z,99.90
2018-04-14T05:14:54.415Z,99.90
2018-04-14T05:17:22.703Z,99.90
2018-04-14T05:19:50.921Z,99.90
2018-04-14T05:22:19.313Z,99.90
2018-04-14T05:24:48.338Z,99.90
2018-04-14T05:27:16.608Z,99.90
2018-04-14T05:29:44.929Z,99.90
2018-04-14T05:32:13.142Z,99.90
2018-04-14T05:34:43.011Z,99.90
2018-04-14T05:37:11.235Z,99.90
2018-04-14T05:39:39.577Z,99.90
2018-04-14T05:42:07.822Z,99.90
2018-04-14T05:44:36.045Z,99.90
2018-04-14T05:47:04.265Z,99.90
2018-04-14T05:49:32.497Z,99.90
2018-04-14T05:52:01.545Z,99.90
2018-04-14T05:54:30.505Z,99.90
2018-04-14T05:56:59.697Z,99.90
2018-04-14T05:59:27.948Z,99.90
2018-04-14T06:01:56.828Z,99.90
2018-04-14T06:04:25.552Z,99.90
2018-04-14T06:06:53.774Z,99.90
2018-04-14T06:09:22.011Z,99.90
2018-04-14T06:11:50.224Z,99.90
2018-04-14T06:14:19.245Z,99.90
2018-04-14T06:16:47.471Z,99.90
2018-04-14T06:19:16.486Z,99.90
2018-04-14T06:21:44.788Z,99.90
2018-04-14T06:24:12.999Z,99.90
2018-04-14T06:26:41.276Z,99.90
2018-04-14T06:29:09.489Z,99.90
2018-04-14T06:31:38.535Z,99.90
2018-04-14T06:34:07.038Z,99.90
2018-04-14T06:36:35.289Z,99.90
2018-04-14T06:39:03.725Z,99.90
2018-04-14T06:41:32.153Z,99.90
2018-04-14T06:44:00.389Z,99.90
2018-04-14T06:46:29.041Z,99.90
2018-04-14T06:48:58.027Z,99.90
2018-04-14T06:51:26.333Z,99.90
2018-04-14T06:53:55.411Z,99.90
2018-04-14T06:56:24.427Z,99.90
2018-04-14T06:58:53.885Z,99.90
2018-04-14T07:01:22.257Z,99.90
2018-04-14T07:03:50.543Z,99.90
2018-04-14T07:06:19.241Z,99.90
2018-04-14T07:08:48.299Z,99.90
2018-04-14T07:11:17.221Z,99.90
2018-04-14T07:13:46.671Z,99.90
2018-04-14T07:16:16.283Z,99.90
2018-04-14T07:18:45.793Z,99.90
2018-04-14T07:21:14.833Z,99.90
2018-04-14T07:23:44.564Z,99.90
2018-04-14T07:26:13.091Z,99.90
2018-04-14T07:28:42.543Z,99.90
2018-04-14T07:31:10.865Z,99.90
2018-04-14T07:33:39.118Z,99.90
2018-04-14T07:36:07.490Z,99.90
2018-04-14T07:38:35.988Z,99.90
2018-04-14T07:41:05.252Z,99.90
2018-04-14T07:43:33.831Z,99.90
2018-04-14T07:46:02.142Z,99.90
2018-04-14T07:48:30.373Z,99.90
2018-04-14T07:50:58.608Z,99.90
2018-04-14T07:53:27.595Z,99.90
2018-04-14T07:55:55.886Z,99.90
2018-04-14T07:58:24.236Z,99.90
2018-04-14T08:00:54.248Z,99.90
2018-04-14T08:03:24.052Z,99.90
2018-04-14T08:05:53.356Z,99.90
2018-04-14T08:08:23.054Z,99.90
2018-04-14T08:10:51.372Z,99.90
2018-04-14T08:13:20.490Z,99.90
2018-04-14T08:15:49.560Z,99.90
2018-04-14T08:18:18.028Z,99.90
2018-04-14T08:20:46.347Z,99.90
2018-04-14T08:23:14.733Z,99.90
2018-04-14T08:25:43.776Z,99.90
2018-04-14T08:28:12.159Z,99.90
2018-04-14T08:30:40.541Z,99.90
2018-04-14T08:33:08.812Z,99.90
2018-04-14T08:35:37.091Z,99.90
2018-04-14T08:38:05.570Z,99.70
2018-04-14T08:40:34.258Z,99.90
2018-04-14T08:43:02.595Z,99.90
2018-04-14T08:45:31.592Z,99.60
2018-04-14T08:48:00.692Z,97.90
2018-04-14T08:50:28.973Z,97.90
2018-04-14T08:52:59.815Z,99.90
2018-04-14T08:55:28.228Z,99.90
2018-04-14T08:57:56.429Z,99.40
2018-04-14T09:00:25.537Z,97.60
2018-04-14T09:02:55.276Z,96.90
2018-04-14T09:05:23.610Z,96.90
2018-04-14T09:07:51.966Z,97.50
2018-04-14T09:10:21.072Z,96.90
2018-04-14T09:12:49.365Z,96.80
2018-04-14T09:15:18.571Z,96.90
2018-04-14T09:17:46.771Z,96.80
2018-04-14T09:20:15.311Z,97.30
2018-04-14T09:22:45.129Z,96.10
2018-04-14T09:25:13.492Z,96.10
2018-04-14T09:27:41.986Z,95.40
2018-04-14T09:30:10.261Z,95.70
2018-04-14T09:32:38.515Z,95.70
2018-04-14T09:35:06.769Z,95.90
2018-04-14T09:37:35.070Z,96.60
2018-04-14T09:40:03.474Z,96.20
2018-04-14T09:42:31.750Z,95.60
2018-04-14T09:44:59.942Z,96.40
2018-04-14T09:47:28.421Z,93.30
2018-04-14T09:49:56.627Z,93.40
2018-04-14T09:52:25.702Z,92.80
2018-04-14T09:54:54.010Z,92.80
2018-04-14T09:57:23.068Z,94.40
2018-04-14T09:59:52.079Z,95.10
2018-04-14T10:02:21.148Z,95.00
2018-04-14T10:04:49.458Z,93.60
2018-04-14T10:07:17.833Z,93.50
2018-04-14T10:09:46.032Z,93.90
2018-04-14T10:12:15.102Z,93.40
2018-04-14T10:14:43.320Z,93.30
2018-04-14T10:17:12.556Z,93.20
2018-04-14T10:19:40.846Z,93.20
2018-04-14T10:22:09.088Z,92.70
2018-04-14T10:24:37.404Z,93.60
2018-04-14T10:27:06.470Z,92.20
2018-04-14T10:29:34.718Z,92.10
2018-04-14T10:32:03.756Z,92.50
2018-04-14T10:34:32.144Z,92.50
2018-04-14T10:37:00.417Z,92.20
2018-04-14T10:39:28.665Z,92.30
2018-04-14T10:41:56.982Z,91.90
2018-04-14T10:44:26.071Z,89.00
2018-04-14T10:46:54.370Z,88.90
2018-04-14T10:49:23.474Z,89.40
2018-04-14T10:51:52.557Z,88.90
2018-04-14T10:54:20.963Z,88.80
2018-04-14T10:56:50.119Z,82.00
2018-04-14T10:59:18.952Z,82.00
2018-04-14T11:01:48.747Z,81.70
2018-04-14T11:04:17.130Z,81.70
2018-04-14T11:06:45.371Z,88.70
2018-04-14T11:09:13.884Z,87.30
2018-04-14T11:11:42.152Z,85.10
2018-04-14T11:14:10.374Z,90.40
2018-04-14T11:16:38.677Z,91.30
2018-04-14T11:19:06.900Z,90.40
2018-04-14T11:21:35.242Z,89.20
2018-04-14T11:24:03.635Z,87.30
2018-04-14T11:26:32.733Z,85.70
2018-04-14T11:29:01.321Z,90.50
2018-04-14T11:31:29.598Z,89.20
2018-04-14T11:33:57.986Z,88.90
2018-04-14T11:36:26.227Z,85.10
2018-04-14T11:38:54.492Z,89.00
2018-04-14T11:41:22.873Z,89.50
2018-04-14T11:43:51.887Z,86.10
2018-04-14T11:46:20.422Z,86.00
2018-04-14T11:48:50.143Z,83.90
2018-04-14T11:51:18.488Z,83.80
2018-04-14T11:53:46.884Z,80.90
2018-04-14T11:56:15.259Z,84.00
2018-04-14T11:58:43.624Z,84.00
2018-04-14T12:01:12.042Z,81.00
2018-04-14T12:03:40.313Z,79.70
2018-04-14T12:06:09.705Z,72.60
2018-04-14T12:08:37.958Z,72.60
2018-04-14T12:11:06.237Z,70.10
2018-04-14T12:13:34.621Z,70.90
2018-04-14T12:16:02.870Z,71.50
2018-04-14T12:18:31.180Z,75.80
2018-04-14T12:20:59.558Z,77.10
2018-04-14T12:23:27.809Z,77.10
2018-04-14T12:25:56.938Z,77.30
2018-04-14T12:28:25.544Z,79.40
2018-04-14T12:30:53.788Z,79.40
2018-04-14T12:33:22.151Z,79.00
2018-04-14T12:35:50.455Z,81.00
2018-04-14T12:38:18.747Z,84.70
2018-04-14T12:40:47.253Z,80.50
2018-04-14T12:43:15.599Z,79.60
2018-04-14T12:45:44.914Z,79.60
2018-04-14T12:48:13.257Z,79.60
2018-04-14T12:50:41.558Z,82.60
2018-04-14T12:53:09.838Z,82.30
2018-04-14T12:55:38.226Z,84.00
2018-04-14T12:58:06.698Z,81.60
2018-04-14T13:00:35.048Z,84.60
2018-04-14T13:03:03.445Z,83.50
2018-04-14T13:05:31.776Z,83.00
2018-04-14T13:08:00.807Z,83.20
2018-04-14T13:10:29.221Z,82.30
2018-04-14T13:12:57.494Z,86.00
2018-04-14T13:15:25.733Z,83.60
2018-04-14T13:17:54.765Z,84.60
2018-04-14T13:20:23.066Z,84.60
2018-04-14T13:22:51.347Z,81.80
2018-04-14T13:25:19.608Z,83.30
2018-04-14T13:27:47.806Z,82.90
2018-04-14T13:30:16.154Z,83.80
2018-04-14T13:32:44.569Z,82.30
2018-04-14T13:35:12.788Z,82.80
2018-04-14T13:37:41.108Z,83.90
2018-04-14T13:40:10.161Z,82.10
2018-04-14T13:42:38.480Z,82.50
2018-04-14T13:45:12.758Z,84.00
2018-04-14T13:47:41.615Z,81.40
2018-04-14T13:50:10.179Z,81.90
2018-04-14T13:52:39.498Z,82.60
2018-04-14T13:55:08.541Z,87.10
2018-04-14T13:57:36.969Z,86.60
2018-04-14T14:00:05.766Z,82.60
2018-04-14T14:02:34.067Z,84.50
2018-04-14T14:05:03.187Z,83.30
2018-04-14T14:07:31.459Z,82.40
2018-04-14T14:10:03.723Z,81.50
2018-04-14T14:12:32.936Z,85.00
2018-04-14T14:15:05.045Z,84.70
2018-04-14T14:17:36.736Z,80.20
2018-04-14T14:20:11.989Z,81.00
2018-04-14T14:22:40.555Z,81.30
2018-04-14T14:25:10.210Z,82.60
2018-04-14T14:27:38.582Z,82.20
2018-04-14T14:30:06.906Z,81.50
2018-04-14T14:32:35.327Z,87.10
2018-04-14T14:35:03.591Z,86.10
2018-04-14T14:37:32.825Z,86.10
2018-04-14T14:40:02.148Z,86.00
2018-04-14T14:42:31.399Z,84.90
2018-04-14T14:44:59.633Z,84.90
2018-04-14T14:47:44.323Z,84.20
2018-04-14T14:50:31.775Z,85.00
2018-04-14T14:53:04.501Z,86.10
2018-04-14T14:55:38.409Z,86.10
2018-04-14T14:58:13.573Z,85.70
2018-04-14T15:00:43.225Z,85.60
2018-04-14T15:03:28.153Z,87.50
2018-04-14T15:05:56.525Z,88.60
2018-04-14T15:08:25.357Z,89.30
2018-04-14T15:10:57.644Z,87.80
2018-04-14T15:13:26.561Z,87.40
2018-04-14T15:15:55.716Z,88.40
2018-04-14T15:18:24.735Z,88.00
2018-04-14T15:20:53.252Z,88.00
2018-04-14T15:23:21.726Z,88.30
2018-04-14T15:25:50.016Z,87.80
2018-04-14T15:28:19.047Z,88.50
2018-04-14T15:34:29.449Z,89.40
2018-04-14T15:36:57.696Z,88.30
2018-04-14T15:39:27.082Z,91.20
2018-04-14T15:41:55.423Z,91.20
2018-04-14T15:44:23.944Z,90.80
2018-04-14T15:46:53.310Z,90.80
2018-04-14T15:49:21.578Z,90.80
2018-04-14T15:51:51.690Z,90.70
2018-04-14T15:54:21.051Z,90.90
2018-04-14T15:56:49.303Z,90.90
2018-04-14T15:59:17.819Z,91.50
2018-04-14T16:01:47.627Z,91.90
2018-04-14T16:04:15.887Z,92.20
2018-04-14T16:06:44.166Z,91.80
2018-04-14T16:09:12.379Z,91.90
2018-04-14T16:11:42.157Z,91.80
2018-04-14T16:14:10.340Z,91.90
2018-04-14T16:16:38.751Z,91.70
2018-04-14T16:19:08.009Z,92.50
2018-04-14T16:21:37.023Z,92.40
2018-04-14T16:24:05.238Z,92.40
2018-04-14T16:26:34.397Z,92.40
2018-04-14T16:29:02.655Z,92.40
2018-04-14T16:31:30.865Z,92.40
2018-04-14T16:33:59.323Z,92.40
2018-04-14T16:36:27.610Z,92.80
2018-04-14T16:38:55.875Z,93.00
2018-04-14T16:41:24.158Z,92.90
2018-04-14T16:43:52.543Z,93.00
2018-04-14T16:46:20.785Z,93.30
2018-04-14T16:48:48.992Z,93.40
2018-04-14T16:51:17.371Z,93.20
2018-04-14T16:53:46.493Z,93.50
2018-04-14T16:56:15.500Z,93.70
2018-04-14T16:58:43.847Z,93.70
2018-04-14T17:01:12.048Z,93.90
2018-04-14T17:03:40.402Z,94.10
2018-04-14T17:06:08.644Z,94.30
2018-04-14T17:08:37.662Z,94.40
2018-04-14T17:11:05.976Z,94.30
2018-04-14T17:13:34.294Z,94.40
2018-04-14T17:16:02.712Z,94.40
2018-04-14T17:18:35.899Z,94.40
2018-04-14T17:21:04.363Z,94.60
2018-04-14T17:23:32.620Z,94.80
2018-04-14T17:26:01.618Z,95.00
2018-04-14T17:28:30.047Z,94.90
2018-04-14T17:30:58.310Z,94.40
2018-04-14T17:33:26.783Z,94.60
2018-04-14T17:35:55.204Z,94.70
2018-04-14T17:38:23.437Z,95.00
2018-04-14T17:40:52.010Z,95.00
2018-04-14T17:43:21.148Z,95.10
2018-04-14T17:45:50.656Z,95.10
2018-04-14T17:48:18.872Z,95.30
2018-04-14T17:50:47.409Z,95.40
2018-04-14T17:53:15.648Z,95.60
2018-04-14T17:55:43.890Z,95.70
2018-04-14T17:58:12.148Z,95.80
2018-04-14T18:00:40.500Z,96.00
2018-04-14T18:03:08.764Z,96.40
2018-04-14T18:05:37.820Z,96.70
2018-04-14T18:08:06.120Z,96.60
2018-04-14T18:10:35.216Z,96.80
2018-04-14T18:13:04.287Z,97.00
2018-04-14T18:15:32.581Z,97.00
2018-04-14T18:18:01.611Z,97.40
2018-04-14T18:20:29.825Z,97.40
2018-04-14T18:22:58.196Z,97.60
2018-04-14T18:25:26.505Z,97.60
2018-04-14T18:27:54.692Z,97.70
2018-04-14T18:30:23.746Z,97.90
2018-04-14T18:32:52.019Z,97.90
2018-04-14T18:35:20.326Z,97.90
2018-04-14T18:37:48.669Z,98.00
2018-04-14T18:40:17.542Z,98.10
2018-04-14T18:42:45.794Z,97.90
2018-04-14T18:45:14.120Z,97.90
2018-04-14T18:47:44.731Z,98.30
2018-04-14T18:50:12.963Z,98.30
2018-04-14T18:52:42.250Z,99.60
2018-04-14T18:55:10.609Z,99.60
2018-04-14T18:57:38.860Z,99.90
2018-04-14T19:00:07.861Z,99.90
2018-04-14T19:02:37.598Z,99.90
2018-04-14T19:05:06.531Z,99.90
2018-04-14T19:07:34.807Z,99.90
2018-04-14T19:10:03.045Z,99.90
2018-04-14T19:12:31.308Z,99.90
2018-04-14T19:14:59.608Z,99.90
2018-04-14T19:17:27.882Z,99.90
2018-04-14T19:19:56.156Z,99.90
2018-04-14T19:22:24.389Z,99.90
2018-04-14T19:24:53.454Z,99.90
2018-04-14T19:27:22.434Z,99.90
2018-04-14T19:29:50.663Z,99.90
2018-04-14T19:32:19.069Z,99.90
2018-04-14T19:34:47.357Z,99.90
2018-04-14T19:37:15.586Z,99.90
2018-04-14T19:39:43.803Z,99.90
2018-04-14T19:42:12.663Z,99.90
2018-04-14T19:44:42.330Z,99.90
2018-04-14T19:47:10.608Z,99.90
2018-04-14T19:49:39.086Z,99.90
2018-04-14T19:52:07.497Z,99.90
2018-04-14T19:54:37.396Z,99.90
2018-04-14T19:57:05.711Z,99.90
2018-04-14T19:59:34.135Z,99.90
2018-04-14T20:02:02.426Z,99.90
2018-04-14T20:04:30.640Z,99.90
2018-04-14T20:07:02.092Z,99.90
2018-04-14T20:09:30.350Z,99.90
2018-04-14T20:11:58.662Z,99.90
2018-04-14T20:14:27.772Z,99.90
2018-04-14T20:16:56.263Z,99.90
2018-04-14T20:19:24.491Z,99.90
2018-04-14T20:21:52.755Z,99.90
2018-04-14T20:24:21.018Z,99.90
2018-04-14T20:26:49.303Z,99.90
2018-04-14T20:29:17.637Z,99.90
2018-04-14T20:31:45.929Z,99.90
2018-04-14T20:34:15.410Z,99.90
2018-04-14T20:36:44.662Z,99.90
2018-04-14T20:39:13.785Z,99.90
2018-04-14T20:41:42.003Z,99.90
2018-04-14T20:44:11.005Z,99.90
2018-04-14T20:46:39.576Z,99.90
2018-04-14T20:49:07.869Z,99.90
2018-04-14T20:51:36.153Z,99.90
2018-04-14T20:54:04.551Z,99.90
2018-04-14T20:56:32.889Z,99.90
2018-04-14T20:59:01.968Z,99.90
2018-04-14T21:01:30.979Z,99.90
2018-04-14T21:03:59.550Z,99.90
2018-04-14T21:06:27.724Z,99.90
2018-04-14T21:08:56.813Z,99.90
2018-04-14T21:11:25.896Z,99.90
2018-04-14T21:13:54.108Z,99.90
2018-04-14T21:16:23.253Z,99.90
2018-04-14T21:18:51.570Z,99.90
2018-04-14T21:21:19.949Z,99.90
2018-04-14T21:23:48.987Z,99.90
2018-04-14T21:26:17.471Z,99.90
2018-04-14T21:28:45.747Z,99.90
2018-04-14T21:31:14.365Z,99.90
2018-04-14T21:33:42.676Z,99.90
2018-04-14T21:36:12.651Z,99.90
2018-04-14T21:38:41.033Z,99.90
2018-04-14T21:41:09.280Z,99.90
2018-04-14T21:43:38.321Z,99.90
2018-04-14T21:46:06.692Z,99.90
2018-04-14T21:48:35.073Z,99.90
2018-04-14T21:51:03.521Z,99.90
2018-04-14T21:53:31.971Z,99.90
2018-04-14T21:56:00.171Z,99.90
2018-04-14T21:58:29.126Z,99.90
2018-04-14T22:00:57.374Z,99.90
2018-04-14T22:03:25.760Z,99.90
2018-04-14T22:05:54.888Z,99.90
2018-04-14T22:08:23.089Z,99.90
2018-04-14T22:10:51.357Z,99.90
2018-04-14T22:13:19.625Z,99.90
2018-04-14T22:15:48.687Z,99.90
2018-04-14T22:18:17.171Z,99.90
2018-04-14T22:20:46.263Z,99.90
2018-04-14T22:23:14.471Z,99.90
2018-04-14T22:25:42.693Z,99.90
2018-04-14T22:28:11.258Z,99.90
2018-04-14T22:30:40.292Z,99.90
2018-04-14T22:33:08.700Z,99.90
2018-04-14T22:35:36.976Z,99.90
2018-04-14T22:38:05.334Z,99.90
2018-04-14T22:40:33.611Z,99.90
2018-04-14T22:43:01.870Z,99.90
2018-04-14T22:45:30.135Z,99.90
2018-04-14T22:47:59.082Z,99.90
2018-04-14T22:50:27.356Z,99.90
2018-04-14T22:52:55.595Z,99.90
2018-04-14T22:55:23.826Z,99.90
2018-04-14T22:57:52.069Z,99.90
2018-04-14T23:00:20.406Z,99.90
2018-04-14T23:02:49.553Z,99.90
2018-04-14T23:05:18.849Z,99.90
2018-04-14T23:07:47.112Z,99.90
2018-04-14T23:10:15.712Z,99.90
2018-04-14T23:12:44.103Z,99.90
2018-04-14T23:15:12.330Z,99.90
2018-04-14T23:17:40.576Z,99.90
2018-04-14T23:20:09.632Z,99.90
2018-04-14T23:22:37.923Z,99.90
2018-04-14T23:25:06.722Z,99.90
2018-04-14T23:27:35.441Z,99.90
2018-04-14T23:30:03.693Z,99.90
2018-04-14T23:32:32.277Z,99.90
2018-04-14T23:35:01.282Z,99.90
2018-04-14T23:37:30.271Z,99.90
2018-04-14T23:39:58.814Z,99.90
2018-04-14T23:42:27.045Z,99.90
2018-04-14T23:44:56.118Z,99.90
2018-04-14T23:47:25.518Z,99.90
2018-04-14T23:49:53.799Z,99.90
2018-04-14T23:52:22.177Z,99.90
2018-04-14T23:54:50.394Z,99.90
2018-04-14T23:57:18.722Z,99.90
2018-04-14T23:59:47.138Z,99.90
